sensor_id;sensor_type;location;lat;lon;timestamp;P1;durP1;ratioP1;P2;durP2;ratioP2
31126;SDS011;17775;57.948;12.514;2023-05-23T00:01:08;8.30;;;4.82;;
31126;SDS011;17775;57.948;12.514;2023-05-23T00:03:35;8.35;;;5.13;;
31126;SDS011;17775;57.948;12.514;2023-05-23T00:06:04;6.45;;;4.63;;
31126;SDS011;17775;57.948;12.514;2023-05-23T00:08:31;6.93;;;4.65;;
31126;SDS011;17775;57.948;12.514;2023-05-23T00:10:58;7.93;;;4.78;;
31126;SDS011;17775;57.948;12.514;2023-05-23T00:13:24;6.85;;;4.40;;
31126;SDS011;17775;57.948;12.514;2023-05-23T00:15:52;6.55;;;4.18;;
31126;SDS011;17775;57.948;12.514;2023-05-23T00:18:18;6.32;;;4.20;;
31126;SDS011;17775;57.948;12.514;2023-05-23T00:20:44;7.97;;;4.60;;
31126;SDS011;17775;57.948;12.514;2023-05-23T00:23:12;6.43;;;4.15;;
31126;SDS011;17775;57.948;12.514;2023-05-23T00:25:46;7.53;;;4.28;;
31126;SDS011;17775;57.948;12.514;2023-05-23T00:28:19;7.05;;;3.88;;
31126;SDS011;17775;57.948;12.514;2023-05-23T00:30:46;7.13;;;3.88;;
31126;SDS011;17775;57.948;12.514;2023-05-23T00:33:17;8.23;;;4.32;;
31126;SDS011;17775;57.948;12.514;2023-05-23T00:35:47;4.85;;;3.05;;
31126;SDS011;17775;57.948;12.514;2023-05-23T00:38:14;4.95;;;3.33;;
31126;SDS011;17775;57.948;12.514;2023-05-23T00:40:41;6.63;;;3.28;;
31126;SDS011;17775;57.948;12.514;2023-05-23T00:43:07;5.30;;;3.00;;
31126;SDS011;17775;57.948;12.514;2023-05-23T00:45:34;4.55;;;3.15;;
31126;SDS011;17775;57.948;12.514;2023-05-23T00:48:01;6.22;;;2.90;;
31126;SDS011;17775;57.948;12.514;2023-05-23T00:50:28;7.63;;;3.80;;
31126;SDS011;17775;57.948;12.514;2023-05-23T00:52:55;5.93;;;2.50;;
31126;SDS011;17775;57.948;12.514;2023-05-23T00:55:23;5.63;;;2.75;;
31126;SDS011;17775;57.948;12.514;2023-05-23T00:57:50;8.52;;;3.53;;
31126;SDS011;17775;57.948;12.514;2023-05-23T01:00:19;5.95;;;2.53;;
31126;SDS011;17775;57.948;12.514;2023-05-23T01:02:47;6.05;;;2.30;;
31126;SDS011;17775;57.948;12.514;2023-05-23T01:05:16;6.43;;;2.67;;
31126;SDS011;17775;57.948;12.514;2023-05-23T01:07:43;4.45;;;2.40;;
31126;SDS011;17775;57.948;12.514;2023-05-23T01:10:10;3.55;;;2.45;;
31126;SDS011;17775;57.948;12.514;2023-05-23T01:12:54;7.18;;;3.00;;
31126;SDS011;17775;57.948;12.514;2023-05-23T01:15:31;6.68;;;2.95;;
31126;SDS011;17775;57.948;12.514;2023-05-23T01:18:02;5.63;;;2.25;;
31126;SDS011;17775;57.948;12.514;2023-05-23T01:20:34;5.20;;;2.08;;
31126;SDS011;17775;57.948;12.514;2023-05-23T01:23:08;3.45;;;2.13;;
31126;SDS011;17775;57.948;12.514;2023-05-23T01:28:07;4.35;;;2.25;;
31126;SDS011;17775;57.948;12.514;2023-05-23T01:30:37;4.80;;;2.30;;
31126;SDS011;17775;57.948;12.514;2023-05-23T01:33:04;5.15;;;2.60;;
31126;SDS011;17775;57.948;12.514;2023-05-23T01:35:32;4.97;;;2.20;;
31126;SDS011;17775;57.948;12.514;2023-05-23T01:37:59;4.38;;;2.70;;
31126;SDS011;17775;57.948;12.514;2023-05-23T01:40:25;4.03;;;2.67;;
31126;SDS011;17775;57.948;12.514;2023-05-23T01:42:52;3.88;;;2.70;;
31126;SDS011;17775;57.948;12.514;2023-05-23T01:45:20;3.63;;;2.47;;
31126;SDS011;17775;57.948;12.514;2023-05-23T01:47:47;4.93;;;2.17;;
31126;SDS011;17775;57.948;12.514;2023-05-23T01:50:15;6.88;;;2.40;;
31126;SDS011;17775;57.948;12.514;2023-05-23T01:52:42;3.65;;;2.78;;
31126;SDS011;17775;57.948;12.514;2023-05-23T01:55:08;4.82;;;2.22;;
31126;SDS011;17775;57.948;12.514;2023-05-23T01:57:35;3.88;;;2.53;;
31126;SDS011;17775;57.948;12.514;2023-05-23T02:00:05;5.03;;;2.67;;
31126;SDS011;17775;57.948;12.514;2023-05-23T02:02:32;5.15;;;2.88;;
31126;SDS011;17775;57.948;12.514;2023-05-23T02:04:59;8.77;;;2.83;;
31126;SDS011;17775;57.948;12.514;2023-05-23T02:07:26;5.65;;;2.50;;
31126;SDS011;17775;57.948;12.514;2023-05-23T02:09:53;3.78;;;2.17;;
31126;SDS011;17775;57.948;12.514;2023-05-23T02:12:19;4.13;;;2.38;;
31126;SDS011;17775;57.948;12.514;2023-05-23T02:14:46;5.18;;;2.28;;
31126;SDS011;17775;57.948;12.514;2023-05-23T02:17:13;6.28;;;3.05;;
31126;SDS011;17775;57.948;12.514;2023-05-23T02:19:42;8.02;;;3.03;;
31126;SDS011;17775;57.948;12.514;2023-05-23T02:22:08;4.50;;;2.63;;
31126;SDS011;17775;57.948;12.514;2023-05-23T02:24:35;3.55;;;2.20;;
31126;SDS011;17775;57.948;12.514;2023-05-23T02:27:01;3.70;;;2.30;;
31126;SDS011;17775;57.948;12.514;2023-05-23T02:29:28;8.07;;;2.20;;
31126;SDS011;17775;57.948;12.514;2023-05-23T02:31:55;4.63;;;2.42;;
31126;SDS011;17775;57.948;12.514;2023-05-23T02:34:21;4.63;;;2.50;;
31126;SDS011;17775;57.948;12.514;2023-05-23T02:36:47;5.47;;;2.40;;
31126;SDS011;17775;57.948;12.514;2023-05-23T02:39:14;3.92;;;2.30;;
31126;SDS011;17775;57.948;12.514;2023-05-23T02:41:40;5.20;;;2.40;;
31126;SDS011;17775;57.948;12.514;2023-05-23T02:44:07;5.45;;;2.30;;
31126;SDS011;17775;57.948;12.514;2023-05-23T02:46:33;6.63;;;2.33;;
31126;SDS011;17775;57.948;12.514;2023-05-23T02:49:00;3.63;;;2.53;;
31126;SDS011;17775;57.948;12.514;2023-05-23T02:51:26;5.18;;;2.28;;
31126;SDS011;17775;57.948;12.514;2023-05-23T02:53:53;4.97;;;2.60;;
31126;SDS011;17775;57.948;12.514;2023-05-23T02:56:19;5.25;;;2.63;;
31126;SDS011;17775;57.948;12.514;2023-05-23T02:58:47;4.38;;;2.15;;
31126;SDS011;17775;57.948;12.514;2023-05-23T03:01:13;7.80;;;2.38;;
31126;SDS011;17775;57.948;12.514;2023-05-23T03:03:40;5.68;;;2.95;;
31126;SDS011;17775;57.948;12.514;2023-05-23T03:06:07;4.88;;;2.72;;
31126;SDS011;17775;57.948;12.514;2023-05-23T03:08:35;4.53;;;2.45;;
31126;SDS011;17775;57.948;12.514;2023-05-23T03:11:02;5.50;;;2.40;;
31126;SDS011;17775;57.948;12.514;2023-05-23T03:13:29;4.72;;;2.67;;
31126;SDS011;17775;57.948;12.514;2023-05-23T03:15:55;5.63;;;2.70;;
31126;SDS011;17775;57.948;12.514;2023-05-23T03:18:22;3.85;;;2.38;;
31126;SDS011;17775;57.948;12.514;2023-05-23T03:20:48;4.05;;;2.58;;
31126;SDS011;17775;57.948;12.514;2023-05-23T03:23:15;5.85;;;2.50;;
31126;SDS011;17775;57.948;12.514;2023-05-23T03:25:42;4.80;;;2.72;;
31126;SDS011;17775;57.948;12.514;2023-05-23T03:28:08;5.30;;;2.75;;
31126;SDS011;17775;57.948;12.514;2023-05-23T03:30:35;5.07;;;3.13;;
31126;SDS011;17775;57.948;12.514;2023-05-23T03:33:01;4.20;;;2.55;;
31126;SDS011;17775;57.948;12.514;2023-05-23T03:35:28;5.78;;;2.90;;
31126;SDS011;17775;57.948;12.514;2023-05-23T03:37:55;6.72;;;2.95;;
31126;SDS011;17775;57.948;12.514;2023-05-23T03:40:22;3.83;;;2.30;;
31126;SDS011;17775;57.948;12.514;2023-05-23T03:42:50;4.03;;;2.65;;
31126;SDS011;17775;57.948;12.514;2023-05-23T03:45:26;4.88;;;2.47;;
31126;SDS011;17775;57.948;12.514;2023-05-23T03:47:53;4.57;;;2.20;;
31126;SDS011;17775;57.948;12.514;2023-05-23T03:50:19;6.32;;;3.33;;
31126;SDS011;17775;57.948;12.514;2023-05-23T03:52:46;6.57;;;3.10;;
31126;SDS011;17775;57.948;12.514;2023-05-23T03:55:12;4.10;;;2.28;;
31126;SDS011;17775;57.948;12.514;2023-05-23T03:57:41;6.57;;;2.80;;
31126;SDS011;17775;57.948;12.514;2023-05-23T04:00:07;2.97;;;2.45;;
31126;SDS011;17775;57.948;12.514;2023-05-23T04:02:37;4.95;;;2.83;;
31126;SDS011;17775;57.948;12.514;2023-05-23T04:05:07;5.65;;;2.58;;
31126;SDS011;17775;57.948;12.514;2023-05-23T04:07:34;5.43;;;2.92;;
31126;SDS011;17775;57.948;12.514;2023-05-23T04:10:02;6.07;;;2.58;;
31126;SDS011;17775;57.948;12.514;2023-05-23T04:12:29;4.88;;;2.50;;
31126;SDS011;17775;57.948;12.514;2023-05-23T04:14:56;6.15;;;2.42;;
31126;SDS011;17775;57.948;12.514;2023-05-23T04:17:23;4.88;;;2.88;;
31126;SDS011;17775;57.948;12.514;2023-05-23T04:19:50;4.35;;;2.30;;
31126;SDS011;17775;57.948;12.514;2023-05-23T04:22:17;6.63;;;2.33;;
31126;SDS011;17775;57.948;12.514;2023-05-23T04:24:43;5.45;;;2.60;;
31126;SDS011;17775;57.948;12.514;2023-05-23T04:27:10;4.47;;;2.25;;
31126;SDS011;17775;57.948;12.514;2023-05-23T04:29:36;7.15;;;2.47;;
31126;SDS011;17775;57.948;12.514;2023-05-23T04:32:05;8.88;;;2.60;;
31126;SDS011;17775;57.948;12.514;2023-05-23T04:34:33;4.05;;;2.15;;
31126;SDS011;17775;57.948;12.514;2023-05-23T04:37:00;4.68;;;2.13;;
31126;SDS011;17775;57.948;12.514;2023-05-23T04:39:29;6.13;;;2.20;;
31126;SDS011;17775;57.948;12.514;2023-05-23T04:41:56;4.00;;;2.28;;
31126;SDS011;17775;57.948;12.514;2023-05-23T04:44:22;3.63;;;2.33;;
31126;SDS011;17775;57.948;12.514;2023-05-23T04:46:52;5.95;;;3.28;;
31126;SDS011;17775;57.948;12.514;2023-05-23T04:49:19;4.32;;;2.55;;
31126;SDS011;17775;57.948;12.514;2023-05-23T04:51:48;3.10;;;2.25;;
31126;SDS011;17775;57.948;12.514;2023-05-23T04:54:14;3.78;;;2.13;;
31126;SDS011;17775;57.948;12.514;2023-05-23T04:56:41;4.82;;;2.50;;
31126;SDS011;17775;57.948;12.514;2023-05-23T04:59:07;5.40;;;2.13;;
31126;SDS011;17775;57.948;12.514;2023-05-23T05:01:36;4.22;;;2.65;;
31126;SDS011;17775;57.948;12.514;2023-05-23T05:04:06;8.70;;;2.67;;
31126;SDS011;17775;57.948;12.514;2023-05-23T05:06:32;5.20;;;2.50;;
31126;SDS011;17775;57.948;12.514;2023-05-23T05:08:59;7.30;;;2.25;;
31126;SDS011;17775;57.948;12.514;2023-05-23T05:11:25;4.35;;;2.40;;
31126;SDS011;17775;57.948;12.514;2023-05-23T05:13:52;4.35;;;2.30;;
31126;SDS011;17775;57.948;12.514;2023-05-23T05:16:18;3.45;;;2.22;;
31126;SDS011;17775;57.948;12.514;2023-05-23T05:18:46;4.90;;;2.15;;
31126;SDS011;17775;57.948;12.514;2023-05-23T05:21:15;5.10;;;2.60;;
31126;SDS011;17775;57.948;12.514;2023-05-23T05:23:42;3.88;;;2.22;;
31126;SDS011;17775;57.948;12.514;2023-05-23T05:26:09;6.15;;;3.15;;
31126;SDS011;17775;57.948;12.514;2023-05-23T05:28:35;3.38;;;2.03;;
31126;SDS011;17775;57.948;12.514;2023-05-23T05:31:03;4.88;;;2.20;;
31126;SDS011;17775;57.948;12.514;2023-05-23T05:33:30;4.85;;;2.17;;
31126;SDS011;17775;57.948;12.514;2023-05-23T05:36:02;4.07;;;2.10;;
31126;SDS011;17775;57.948;12.514;2023-05-23T05:38:28;4.47;;;2.40;;
31126;SDS011;17775;57.948;12.514;2023-05-23T05:40:55;3.75;;;2.38;;
31126;SDS011;17775;57.948;12.514;2023-05-23T05:43:21;4.47;;;1.90;;
31126;SDS011;17775;57.948;12.514;2023-05-23T05:45:48;4.68;;;2.28;;
31126;SDS011;17775;57.948;12.514;2023-05-23T05:48:15;3.70;;;2.17;;
31126;SDS011;17775;57.948;12.514;2023-05-23T05:50:42;7.63;;;2.67;;
31126;SDS011;17775;57.948;12.514;2023-05-23T05:53:10;3.35;;;1.95;;
31126;SDS011;17775;57.948;12.514;2023-05-23T05:55:37;3.45;;;2.15;;
31126;SDS011;17775;57.948;12.514;2023-05-23T05:58:04;5.85;;;2.17;;
31126;SDS011;17775;57.948;12.514;2023-05-23T06:00:31;3.40;;;2.33;;
31126;SDS011;17775;57.948;12.514;2023-05-23T06:02:57;5.05;;;2.03;;
31126;SDS011;17775;57.948;12.514;2023-05-23T06:05:24;3.17;;;2.05;;
31126;SDS011;17775;57.948;12.514;2023-05-23T06:07:51;5.25;;;2.05;;
31126;SDS011;17775;57.948;12.514;2023-05-23T06:10:18;3.30;;;2.10;;
31126;SDS011;17775;57.948;12.514;2023-05-23T06:12:46;3.90;;;2.17;;
31126;SDS011;17775;57.948;12.514;2023-05-23T06:15:14;4.22;;;2.50;;
31126;SDS011;17775;57.948;12.514;2023-05-23T06:17:41;3.85;;;2.25;;
31126;SDS011;17775;57.948;12.514;2023-05-23T06:20:08;5.10;;;2.33;;
31126;SDS011;17775;57.948;12.514;2023-05-23T06:22:35;3.83;;;2.10;;
31126;SDS011;17775;57.948;12.514;2023-05-23T06:25:02;5.88;;;2.35;;
31126;SDS011;17775;57.948;12.514;2023-05-23T06:27:28;5.47;;;2.22;;
31126;SDS011;17775;57.948;12.514;2023-05-23T06:29:55;6.10;;;2.22;;
31126;SDS011;17775;57.948;12.514;2023-05-23T06:32:21;6.47;;;2.85;;
31126;SDS011;17775;57.948;12.514;2023-05-23T06:34:48;5.68;;;2.17;;
31126;SDS011;17775;57.948;12.514;2023-05-23T06:37:14;7.40;;;2.45;;
31126;SDS011;17775;57.948;12.514;2023-05-23T06:39:41;5.55;;;2.28;;
31126;SDS011;17775;57.948;12.514;2023-05-23T06:42:08;4.82;;;2.00;;
31126;SDS011;17775;57.948;12.514;2023-05-23T06:44:34;5.15;;;2.35;;
31126;SDS011;17775;57.948;12.514;2023-05-23T06:47:01;8.80;;;2.42;;
31126;SDS011;17775;57.948;12.514;2023-05-23T06:49:27;3.65;;;2.22;;
31126;SDS011;17775;57.948;12.514;2023-05-23T06:51:54;6.70;;;2.33;;
31126;SDS011;17775;57.948;12.514;2023-05-23T06:54:23;5.13;;;2.38;;
31126;SDS011;17775;57.948;12.514;2023-05-23T06:56:50;4.28;;;2.25;;
31126;SDS011;17775;57.948;12.514;2023-05-23T06:59:16;5.20;;;2.22;;
31126;SDS011;17775;57.948;12.514;2023-05-23T07:01:43;15.57;;;3.42;;
31126;SDS011;17775;57.948;12.514;2023-05-23T07:04:09;5.57;;;2.45;;
31126;SDS011;17775;57.948;12.514;2023-05-23T07:06:37;7.22;;;2.10;;
31126;SDS011;17775;57.948;12.514;2023-05-23T07:09:05;4.22;;;2.00;;
31126;SDS011;17775;57.948;12.514;2023-05-23T07:11:31;6.68;;;2.25;;
31126;SDS011;17775;57.948;12.514;2023-05-23T07:14:00;3.50;;;2.30;;
31126;SDS011;17775;57.948;12.514;2023-05-23T07:16:26;4.25;;;2.20;;
31126;SDS011;17775;57.948;12.514;2023-05-23T07:18:53;4.70;;;2.00;;
31126;SDS011;17775;57.948;12.514;2023-05-23T07:21:20;6.65;;;2.30;;
31126;SDS011;17775;57.948;12.514;2023-05-23T07:23:46;5.05;;;2.10;;
31126;SDS011;17775;57.948;12.514;2023-05-23T07:26:13;4.43;;;2.05;;
31126;SDS011;17775;57.948;12.514;2023-05-23T07:28:39;8.73;;;2.67;;
31126;SDS011;17775;57.948;12.514;2023-05-23T07:31:06;4.15;;;2.28;;
31126;SDS011;17775;57.948;12.514;2023-05-23T07:33:34;6.93;;;2.30;;
31126;SDS011;17775;57.948;12.514;2023-05-23T07:36:01;6.35;;;2.10;;
31126;SDS011;17775;57.948;12.514;2023-05-23T07:38:27;6.78;;;2.38;;
31126;SDS011;17775;57.948;12.514;2023-05-23T07:40:54;6.20;;;2.28;;
31126;SDS011;17775;57.948;12.514;2023-05-23T07:43:36;3.33;;;2.17;;
31126;SDS011;17775;57.948;12.514;2023-05-23T07:46:03;5.03;;;2.17;;
31126;SDS011;17775;57.948;12.514;2023-05-23T07:48:30;4.30;;;2.10;;
31126;SDS011;17775;57.948;12.514;2023-05-23T07:50:57;5.90;;;2.47;;
31126;SDS011;17775;57.948;12.514;2023-05-23T07:53:23;4.30;;;2.05;;
31126;SDS011;17775;57.948;12.514;2023-05-23T07:55:50;4.93;;;2.55;;
31126;SDS011;17775;57.948;12.514;2023-05-23T07:58:16;4.63;;;2.40;;
31126;SDS011;17775;57.948;12.514;2023-05-23T08:00:44;4.05;;;2.17;;
31126;SDS011;17775;57.948;12.514;2023-05-23T08:03:10;9.15;;;1.95;;
31126;SDS011;17775;57.948;12.514;2023-05-23T08:05:37;4.22;;;2.10;;
31126;SDS011;17775;57.948;12.514;2023-05-23T08:08:04;6.82;;;2.35;;
31126;SDS011;17775;57.948;12.514;2023-05-23T08:10:31;6.70;;;2.10;;
31126;SDS011;17775;57.948;12.514;2023-05-23T08:12:57;6.07;;;2.50;;
31126;SDS011;17775;57.948;12.514;2023-05-23T08:15:26;3.78;;;2.15;;
31126;SDS011;17775;57.948;12.514;2023-05-23T08:17:54;3.17;;;2.20;;
31126;SDS011;17775;57.948;12.514;2023-05-23T08:20:23;3.33;;;2.03;;
31126;SDS011;17775;57.948;12.514;2023-05-23T08:22:57;3.90;;;2.20;;
31126;SDS011;17775;57.948;12.514;2023-05-23T08:25:23;4.55;;;2.20;;
31126;SDS011;17775;57.948;12.514;2023-05-23T08:27:50;7.40;;;3.13;;
31126;SDS011;17775;57.948;12.514;2023-05-23T08:30:16;5.85;;;2.53;;
31126;SDS011;17775;57.948;12.514;2023-05-23T08:32:43;9.32;;;2.28;;
31126;SDS011;17775;57.948;12.514;2023-05-23T08:35:10;4.50;;;2.40;;
31126;SDS011;17775;57.948;12.514;2023-05-23T08:37:37;3.53;;;2.15;;
31126;SDS011;17775;57.948;12.514;2023-05-23T08:40:06;5.60;;;2.28;;
31126;SDS011;17775;57.948;12.514;2023-05-23T08:42:34;4.30;;;2.13;;
31126;SDS011;17775;57.948;12.514;2023-05-23T08:45:00;3.97;;;2.30;;
31126;SDS011;17775;57.948;12.514;2023-05-23T08:47:27;5.22;;;2.30;;
31126;SDS011;17775;57.948;12.514;2023-05-23T08:49:54;4.22;;;2.00;;
31126;SDS011;17775;57.948;12.514;2023-05-23T08:52:21;6.45;;;2.85;;
31126;SDS011;17775;57.948;12.514;2023-05-23T08:54:49;5.60;;;2.25;;
31126;SDS011;17775;57.948;12.514;2023-05-23T08:57:16;6.03;;;2.88;;
31126;SDS011;17775;57.948;12.514;2023-05-23T08:59:43;4.55;;;2.80;;
31126;SDS011;17775;57.948;12.514;2023-05-23T09:02:10;3.65;;;2.05;;
31126;SDS011;17775;57.948;12.514;2023-05-23T09:04:39;4.35;;;2.25;;
31126;SDS011;17775;57.948;12.514;2023-05-23T09:07:06;4.53;;;2.08;;
31126;SDS011;17775;57.948;12.514;2023-05-23T09:09:33;4.22;;;2.10;;
31126;SDS011;17775;57.948;12.514;2023-05-23T09:11:59;5.10;;;2.17;;
31126;SDS011;17775;57.948;12.514;2023-05-23T09:14:26;6.82;;;2.30;;
31126;SDS011;17775;57.948;12.514;2023-05-23T09:16:59;3.60;;;2.17;;
31126;SDS011;17775;57.948;12.514;2023-05-23T09:19:29;4.97;;;2.35;;
31126;SDS011;17775;57.948;12.514;2023-05-23T09:21:56;2.83;;;1.77;;
31126;SDS011;17775;57.948;12.514;2023-05-23T09:24:23;4.28;;;2.15;;
31126;SDS011;17775;57.948;12.514;2023-05-23T09:26:58;8.52;;;2.45;;
31126;SDS011;17775;57.948;12.514;2023-05-23T09:29:25;5.38;;;2.38;;
31126;SDS011;17775;57.948;12.514;2023-05-23T09:31:58;5.07;;;2.17;;
31126;SDS011;17775;57.948;12.514;2023-05-23T09:34:25;5.75;;;2.38;;
31126;SDS011;17775;57.948;12.514;2023-05-23T09:36:54;4.20;;;1.70;;
31126;SDS011;17775;57.948;12.514;2023-05-23T09:39:20;3.90;;;2.05;;
31126;SDS011;17775;57.948;12.514;2023-05-23T09:41:47;8.02;;;2.15;;
31126;SDS011;17775;57.948;12.514;2023-05-23T09:44:14;3.30;;;1.95;;
31126;SDS011;17775;57.948;12.514;2023-05-23T09:46:49;6.28;;;2.45;;
31126;SDS011;17775;57.948;12.514;2023-05-23T09:49:18;5.53;;;2.10;;
31126;SDS011;17775;57.948;12.514;2023-05-23T09:51:55;4.88;;;2.28;;
31126;SDS011;17775;57.948;12.514;2023-05-23T09:54:22;4.82;;;2.47;;
31126;SDS011;17775;57.948;12.514;2023-05-23T09:56:48;3.72;;;2.28;;
31126;SDS011;17775;57.948;12.514;2023-05-23T09:59:16;5.90;;;2.35;;
31126;SDS011;17775;57.948;12.514;2023-05-23T10:01:45;3.53;;;2.25;;
31126;SDS011;17775;57.948;12.514;2023-05-23T10:04:13;4.57;;;2.25;;
31126;SDS011;17775;57.948;12.514;2023-05-23T10:06:46;3.85;;;2.30;;
31126;SDS011;17775;57.948;12.514;2023-05-23T10:09:16;3.55;;;2.30;;
31126;SDS011;17775;57.948;12.514;2023-05-23T10:14:30;8.38;;;1.98;;
31126;SDS011;17775;57.948;12.514;2023-05-23T10:19:33;5.53;;;2.55;;
31126;SDS011;17775;57.948;12.514;2023-05-23T10:22:02;5.38;;;2.00;;
31126;SDS011;17775;57.948;12.514;2023-05-23T10:24:32;12.80;;;2.97;;
31126;SDS011;17775;57.948;12.514;2023-05-23T10:26:59;3.15;;;2.33;;
31126;SDS011;17775;57.948;12.514;2023-05-23T10:29:26;4.00;;;2.13;;
31126;SDS011;17775;57.948;12.514;2023-05-23T10:31:52;6.35;;;2.40;;
31126;SDS011;17775;57.948;12.514;2023-05-23T10:36:59;2.70;;;1.95;;
31126;SDS011;17775;57.948;12.514;2023-05-23T10:41:58;3.78;;;2.30;;
31126;SDS011;17775;57.948;12.514;2023-05-23T10:44:26;5.60;;;2.03;;
31126;SDS011;17775;57.948;12.514;2023-05-23T10:49:20;7.28;;;2.92;;
31126;SDS011;17775;57.948;12.514;2023-05-23T10:51:48;5.75;;;2.15;;
31126;SDS011;17775;57.948;12.514;2023-05-23T10:54:19;6.53;;;2.40;;
31126;SDS011;17775;57.948;12.514;2023-05-23T10:56:46;9.35;;;2.38;;
31126;SDS011;17775;57.948;12.514;2023-05-23T10:59:19;3.95;;;2.20;;
31126;SDS011;17775;57.948;12.514;2023-05-23T11:01:49;3.72;;;2.35;;
31126;SDS011;17775;57.948;12.514;2023-05-23T11:04:23;4.38;;;2.33;;
31126;SDS011;17775;57.948;12.514;2023-05-23T11:06:50;4.97;;;2.30;;
31126;SDS011;17775;57.948;12.514;2023-05-23T11:09:17;3.42;;;1.80;;
31126;SDS011;17775;57.948;12.514;2023-05-23T11:11:50;4.03;;;2.53;;
31126;SDS011;17775;57.948;12.514;2023-05-23T11:15:17;5.03;;;2.47;;
31126;SDS011;17775;57.948;12.514;2023-05-23T11:19:37;3.83;;;2.28;;
31126;SDS011;17775;57.948;12.514;2023-05-23T11:22:07;4.13;;;2.13;;
31126;SDS011;17775;57.948;12.514;2023-05-23T11:24:52;3.08;;;2.13;;
31126;SDS011;17775;57.948;12.514;2023-05-23T11:27:26;4.78;;;2.13;;
31126;SDS011;17775;57.948;12.514;2023-05-23T11:30:06;6.18;;;2.50;;
31126;SDS011;17775;57.948;12.514;2023-05-23T11:32:33;3.58;;;2.30;;
31126;SDS011;17775;57.948;12.514;2023-05-23T11:35:03;6.47;;;2.35;;
31126;SDS011;17775;57.948;12.514;2023-05-23T11:37:30;10.10;;;2.88;;
31126;SDS011;17775;57.948;12.514;2023-05-23T11:39:57;4.50;;;2.53;;
31126;SDS011;17775;57.948;12.514;2023-05-23T11:42:23;4.07;;;2.38;;
31126;SDS011;17775;57.948;12.514;2023-05-23T11:44:50;4.50;;;2.50;;
31126;SDS011;17775;57.948;12.514;2023-05-23T11:47:17;6.00;;;2.28;;
31126;SDS011;17775;57.948;12.514;2023-05-23T11:49:44;4.47;;;2.60;;
31126;SDS011;17775;57.948;12.514;2023-05-23T11:52:12;7.35;;;2.95;;
31126;SDS011;17775;57.948;12.514;2023-05-23T11:54:39;4.22;;;2.28;;
31126;SDS011;17775;57.948;12.514;2023-05-23T11:57:05;4.88;;;2.50;;
31126;SDS011;17775;57.948;12.514;2023-05-23T11:59:35;3.30;;;2.30;;
31126;SDS011;17775;57.948;12.514;2023-05-23T12:02:02;4.43;;;1.90;;
31126;SDS011;17775;57.948;12.514;2023-05-23T12:04:29;4.50;;;2.63;;
31126;SDS011;17775;57.948;12.514;2023-05-23T12:06:55;3.25;;;2.35;;
31126;SDS011;17775;57.948;12.514;2023-05-23T12:09:22;7.53;;;2.45;;
31126;SDS011;17775;57.948;12.514;2023-05-23T12:11:48;4.18;;;2.30;;
31126;SDS011;17775;57.948;12.514;2023-05-23T12:14:16;5.72;;;1.90;;
31126;SDS011;17775;57.948;12.514;2023-05-23T12:16:43;3.83;;;2.15;;
31126;SDS011;17775;57.948;12.514;2023-05-23T12:19:17;3.42;;;2.50;;
31126;SDS011;17775;57.948;12.514;2023-05-23T12:21:45;4.82;;;2.40;;
31126;SDS011;17775;57.948;12.514;2023-05-23T12:24:15;4.07;;;2.20;;
31126;SDS011;17775;57.948;12.514;2023-05-23T12:29:09;5.10;;;2.83;;
31126;SDS011;17775;57.948;12.514;2023-05-23T12:31:35;4.47;;;2.33;;
31126;SDS011;17775;57.948;12.514;2023-05-23T12:34:02;6.32;;;2.75;;
31126;SDS011;17775;57.948;12.514;2023-05-23T12:36:28;6.10;;;2.90;;
31126;SDS011;17775;57.948;12.514;2023-05-23T12:39:02;6.05;;;3.15;;
31126;SDS011;17775;57.948;12.514;2023-05-23T12:41:28;4.63;;;2.53;;
31126;SDS011;17775;57.948;12.514;2023-05-23T12:43:55;4.82;;;3.17;;
31126;SDS011;17775;57.948;12.514;2023-05-23T12:46:24;5.32;;;2.80;;
31126;SDS011;17775;57.948;12.514;2023-05-23T12:48:51;4.43;;;2.55;;
31126;SDS011;17775;57.948;12.514;2023-05-23T12:51:18;3.95;;;2.65;;
31126;SDS011;17775;57.948;12.514;2023-05-23T12:53:45;5.35;;;2.78;;
31126;SDS011;17775;57.948;12.514;2023-05-23T12:56:12;5.55;;;2.70;;
31126;SDS011;17775;57.948;12.514;2023-05-23T12:58:38;10.73;;;2.70;;
31126;SDS011;17775;57.948;12.514;2023-05-23T13:01:05;4.22;;;2.70;;
31126;SDS011;17775;57.948;12.514;2023-05-23T13:03:32;6.07;;;3.10;;
31126;SDS011;17775;57.948;12.514;2023-05-23T13:05:58;5.05;;;3.03;;
31126;SDS011;17775;57.948;12.514;2023-05-23T13:08:25;9.32;;;3.22;;
31126;SDS011;17775;57.948;12.514;2023-05-23T13:10:52;4.90;;;2.90;;
31126;SDS011;17775;57.948;12.514;2023-05-23T13:13:19;5.35;;;3.28;;
31126;SDS011;17775;57.948;12.514;2023-05-23T13:15:46;9.40;;;3.08;;
31126;SDS011;17775;57.948;12.514;2023-05-23T13:18:15;6.57;;;3.33;;
31126;SDS011;17775;57.948;12.514;2023-05-23T13:20:42;5.38;;;2.95;;
31126;SDS011;17775;57.948;12.514;2023-05-23T13:23:09;5.82;;;3.08;;
31126;SDS011;17775;57.948;12.514;2023-05-23T13:25:36;5.97;;;3.30;;
31126;SDS011;17775;57.948;12.514;2023-05-23T13:28:02;5.05;;;3.05;;
31126;SDS011;17775;57.948;12.514;2023-05-23T13:30:29;9.13;;;3.20;;
31126;SDS011;17775;57.948;12.514;2023-05-23T13:32:56;5.07;;;3.20;;
31126;SDS011;17775;57.948;12.514;2023-05-23T13:35:23;7.28;;;3.28;;
31126;SDS011;17775;57.948;12.514;2023-05-23T13:37:49;6.22;;;3.55;;
31126;SDS011;17775;57.948;12.514;2023-05-23T13:40:17;5.55;;;3.22;;
31126;SDS011;17775;57.948;12.514;2023-05-23T13:42:48;5.65;;;3.40;;
31126;SDS011;17775;57.948;12.514;2023-05-23T13:45:16;6.30;;;3.17;;
31126;SDS011;17775;57.948;12.514;2023-05-23T13:47:43;5.53;;;3.17;;
31126;SDS011;17775;57.948;12.514;2023-05-23T13:50:10;5.40;;;3.40;;
31126;SDS011;17775;57.948;12.514;2023-05-23T13:52:37;5.90;;;3.35;;
31126;SDS011;17775;57.948;12.514;2023-05-23T13:55:07;6.65;;;3.95;;
31126;SDS011;17775;57.948;12.514;2023-05-23T13:57:34;5.05;;;2.90;;
31126;SDS011;17775;57.948;12.514;2023-05-23T14:00:00;6.75;;;4.00;;
31126;SDS011;17775;57.948;12.514;2023-05-23T14:02:28;5.38;;;3.45;;
31126;SDS011;17775;57.948;12.514;2023-05-23T14:04:57;5.53;;;3.50;;
31126;SDS011;17775;57.948;12.514;2023-05-23T14:07:24;5.22;;;3.28;;
31126;SDS011;17775;57.948;12.514;2023-05-23T14:09:50;7.75;;;3.30;;
31126;SDS011;17775;57.948;12.514;2023-05-23T14:12:17;5.45;;;3.45;;
31126;SDS011;17775;57.948;12.514;2023-05-23T14:14:43;5.45;;;3.30;;
31126;SDS011;17775;57.948;12.514;2023-05-23T14:17:14;4.55;;;3.22;;
31126;SDS011;17775;57.948;12.514;2023-05-23T14:19:41;4.60;;;3.50;;
31126;SDS011;17775;57.948;12.514;2023-05-23T14:22:08;5.72;;;3.78;;
31126;SDS011;17775;57.948;12.514;2023-05-23T14:24:34;6.40;;;3.35;;
31126;SDS011;17775;57.948;12.514;2023-05-23T14:27:01;5.40;;;3.38;;
31126;SDS011;17775;57.948;12.514;2023-05-23T14:29:27;5.35;;;2.60;;
31126;SDS011;17775;57.948;12.514;2023-05-23T14:31:54;8.52;;;2.80;;
31126;SDS011;17775;57.948;12.514;2023-05-23T14:34:21;5.72;;;3.15;;
31126;SDS011;17775;57.948;12.514;2023-05-23T14:36:47;5.65;;;3.55;;
31126;SDS011;17775;57.948;12.514;2023-05-23T14:39:13;6.68;;;3.40;;
31126;SDS011;17775;57.948;12.514;2023-05-23T14:41:41;5.13;;;3.25;;
31126;SDS011;17775;57.948;12.514;2023-05-23T14:44:07;5.85;;;2.95;;
31126;SDS011;17775;57.948;12.514;2023-05-23T14:46:34;6.45;;;3.90;;
31126;SDS011;17775;57.948;12.514;2023-05-23T14:49:01;8.18;;;3.55;;
31126;SDS011;17775;57.948;12.514;2023-05-23T14:51:27;7.05;;;3.60;;
31126;SDS011;17775;57.948;12.514;2023-05-23T14:54:13;7.18;;;4.10;;
31126;SDS011;17775;57.948;12.514;2023-05-23T14:56:41;7.78;;;3.17;;